Time;durP1;ratioP1;P1;durP2;ratioP2;P2;SDS_P1;SDS_P2;PMS_P1;PMS_P2;Temp;Humidity;BMP_temperature;BMP_pressure;BME280_temperature;BME280_humidity;BME280_pressure;Samples;Min_cycle;Max_cycle;Signal;HPM_P1;HPM_P2
2021/06/10 00:01:02;;;;;;;;;;;;;;;;;;5114600;28;19918;-68
2021/06/10 00:03:28;;;;;;;;;;;;;;;;;;5114335;28;19900;-67
2021/06/10 00:05:54;;;;;;;;;;;;;;;;;;5096107;28;19900;-68
2021/06/10 00:08:20;;;;;;;;;;;;;;;;;;5114612;28;19906;-68
2021/06/10 00:10:46;;;;;;;;;;;;;;;;;;5114830;28;19933;-68
2021/06/10 00:13:12;;;;;;;;;;;;;;;;;;5114548;28;19922;-66
2021/06/10 00:15:38;;;;;;;;;;;;;;;;;;5114194;28;20370;-67
2021/06/10 00:18:04;;;;;;;;;;;;;;;;;;5117602;28;20288;-65
2021/06/10 00:20:30;;;;;;;;;;;;;;;;;;5118658;28;19997;-66
2021/06/10 00:22:56;;;;;;;;;;;;;;;;;;5118541;28;19910;-67
2021/06/10 00:25:22;;;;;;;;;;;;;;;;;;5118417;28;19899;-69
2021/06/10 00:27:48;;;;;;;;;;;;;;;;;;5118507;28;19899;-68
2021/06/10 00:30:15;;;;;;;;;;;;;;;;;;5118436;28;19950;-66
2021/06/10 00:32:41;;;;;;;;;;;;;;;;;;5118085;28;19907;-68
2021/06/10 00:35:07;;;;;;;;;;;;;;;;;;5118303;28;20268;-68
2021/06/10 00:37:33;;;;;;;;;;;;;;;;;;5118322;28;19921;-67
2021/06/10 00:39:59;;;;;;;;;;;;;;;;;;5117623;28;19945;-68
2021/06/10 00:42:25;;;;;;;;;;;;;;;;;;5118508;28;19900;-68
2021/06/10 00:44:51;;;;;;;;;;;;;;;;;;5117842;28;19935;-66
2021/06/10 00:47:17;;;;;;;;;;;;;;;;;;5117693;28;19900;-67
2021/06/10 00:49:43;;;;;;;;;;;;;;;;;;5117816;28;20362;-69
2021/06/10 00:52:09;;;;;;;;;;;;;;;;;;5118624;28;20236;-67
2021/06/10 00:54:35;;;;;;;;;;;;;;;;;;5117841;28;20014;-67
2021/06/10 00:57:01;;;;;;;;;;;;;;;;;;5117933;28;19946;-68
2021/06/10 00:59:27;;;;;;;;;;;;;;;;;;5117773;28;19904;-66
2021/06/10 01:01:53;;;;;;;;;;;;;;;;;;5117273;28;19900;-67
2021/06/10 01:04:19;;;;;;;;;;;;;;;;;;5117822;28;19907;-67
2021/06/10 01:06:45;;;;;;;;;;;;;;;;;;5118053;28;19899;-65
2021/06/10 01:09:11;;;;;;;;;;;;;;;;;;5099432;28;20347;-68
2021/06/10 01:11:37;;;;;;;;;;;;;;;;;;5117389;28;19952;-68
2021/06/10 01:14:03;;;;;;;;;;;;;;;;;;5117132;28;19900;-69
2021/06/10 01:16:28;;;;;;;;;;;;;;;;;;5117918;28;19899;-67
2021/06/10 01:18:54;;;;;;;;;;;;;;;;;;5117548;28;19899;-67
2021/06/10 01:21:20;;;;;;;;;;;;;;;;;;5116916;28;19946;-67
2021/06/10 01:23:46;;;;;;;;;;;;;;;;;;5117412;28;19903;-67
2021/06/10 01:26:12;;;;;;;;;;;;;;;;;;5118040;28;19899;-65
2021/06/10 01:28:38;;;;;;;;;;;;;;;;;;5116699;28;19906;-66
2021/06/10 01:31:05;;;;;;;;;;;;;;;;;;5117543;28;19943;-66
2021/06/10 01:33:31;;;;;;;;;;;;;;;;;;5118107;28;20236;-70
2021/06/10 01:35:57;;;;;;;;;;;;;;;;;;5116533;28;19998;-68
2021/06/10 01:38:23;;;;;;;;;;;;;;;;;;5117715;28;20309;-69
2021/06/10 01:40:49;;;;;;;;;;;;;;;;;;5116806;28;20019;-67
2021/06/10 01:43:15;;;;;;;;;;;;;;;;;;5116719;28;19900;-67
2021/06/10 01:45:41;;;;;;;;;;;;;;;;;;5116702;28;19899;-68
2021/06/10 01:48:06;;;;;;;;;;;;;;;;;;5098667;28;19906;-67
2021/06/10 01:50:32;;;;;;;;;;;;;;;;;;5116656;28;19899;-65
2021/06/10 01:52:58;;;;;;;;;;;;;;;;;;5116858;28;19906;-65
2021/06/10 01:55:24;;;;;;;;;;;;;;;;;;5117199;28;19960;-65
2021/06/10 01:57:50;;;;;;;;;;;;;;;;;;5116194;28;20348;-67
2021/06/10 02:00:16;;;;;;;;;;;;;;;;;;5116515;28;19915;-67
2021/06/10 02:02:42;;;;;;;;;;;;;;;;;;5116104;28;19906;-66
2021/06/10 02:05:08;;;;;;;;;;;;;;;;;;5099196;28;19899;-64
2021/06/10 02:07:34;;;;;;;;;;;;;;;;;;5116927;28;19953;-66
2021/06/10 02:10:00;;;;;;;;;;;;;;;;;;5116232;28;20225;-66
2021/06/10 02:12:26;;;;;;;;;;;;;;;;;;5116741;28;19916;-65
2021/06/10 02:14:52;;;;;;;;;;;;;;;;;;5116339;28;19908;-68
2021/06/10 02:17:18;;;;;;;;;;;;;;;;;;5115810;28;19994;-66
2021/06/10 02:19:44;;;;;;;;;;;;;;;;;;5116034;28;19906;-69
2021/06/10 02:22:10;;;;;;;;;;;;;;;;;;5116271;28;19900;-66
2021/06/10 02:24:36;;;;;;;;;;;;;;;;;;5115958;28;19910;-65
2021/06/10 02:27:02;;;;;;;;;;;;;;;;;;5116497;28;19899;-68
2021/06/10 02:29:28;;;;;;;;;;;;;;;;;;5115852;28;19910;-66
2021/06/10 02:31:54;;;;;;;;;;;;;;;;;;5116066;28;19925;-65
2021/06/10 02:34:19;;;;;;;;;;;;;;;;;;5115847;28;20249;-67
2021/06/10 02:36:45;;;;;;;;;;;;;;;;;;5115998;28;19949;-66
2021/06/10 02:39:11;;;;;;;;;;;;;;;;;;5115025;28;19900;-67
2021/06/10 02:41:38;;;;;;;;;;;;;;;;;;5116250;28;20305;-67
2021/06/10 02:44:04;;;;;;;;;;;;;;;;;;5116122;28;19899;-68
2021/06/10 02:46:30;;;;;;;;;;;;;;;;;;5115487;28;19900;-67
2021/06/10 02:48:55;;;;;;;;;;;;;;;;;;5115734;28;20049;-68
2021/06/10 02:51:21;;;;;;;;;;;;;;;;;;5115729;28;19945;-68
2021/06/10 02:53:47;;;;;;;;;;;;;;;;;;5115062;28;19907;-68
2021/06/10 02:56:13;;;;;;;;;;;;;;;;;;5115879;28;19908;-66
2021/06/10 02:58:39;;;;;;;;;;;;;;;;;;5114299;28;19994;-67
2021/06/10 03:01:05;;;;;;;;;;;;;;;;;;5115512;28;19911;-66
2021/06/10 03:03:31;;;;;;;;;;;;;;;;;;5115520;28;19899;-68
2021/06/10 03:05:57;;;;;;;;;;;;;;;;;;5115217;28;19904;-67
2021/06/10 03:08:23;;;;;;;;;;;;;;;;;;5114897;28;19990;-66
2021/06/10 03:10:49;;;;;;;;;;;;;;;;;;5115229;28;19899;-68
2021/06/10 03:13:15;;;;;;;;;;;;;;;;;;5115334;28;20336;-65
2021/06/10 03:15:41;;;;;;;;;;;;;;;;;;5115390;28;20248;-67
2021/06/10 03:18:07;;;;;;;;;;;;;;;;;;5114815;28;19943;-67
2021/06/10 03:20:33;;;;;;;;;;;;;;;;;;5114334;28;19904;-68
2021/06/10 03:22:59;;;;;;;;;;;;;;;;;;5096818;28;19906;-66
2021/06/10 03:25:25;;;;;;;;;;;;;;;;;;5114665;28;19899;-67
2021/06/10 03:27:51;;;;;;;;;;;;;;;;;;5114573;28;20037;-65
2021/06/10 03:30:17;;;;;;;;;;;;;;;;;;5115007;28;19900;-66
2021/06/10 03:32:43;;;;;;;;;;;;;;;;;;5113446;28;19951;-66
2021/06/10 03:35:09;;;;;;;;;;;;;;;;;;5113014;28;19908;-64
2021/06/10 03:37:35;;;;;;;;;;;;;;;;;;5113599;28;19899;-63
2021/06/10 03:40:01;;;;;;;;;;;;;;;;;;5113388;28;19906;-64
2021/06/10 03:42:28;;;;;;;;;;;;;;;;;;5113175;28;19900;-64
2021/06/10 03:44:54;;;;;;;;;;;;;;;;;;5113529;28;19907;-63
2021/06/10 03:47:20;;;;;;;;;;;;;;;;;;5113576;28;19904;-67
2021/06/10 03:49:46;;;;;;;;;;;;;;;;;;5113135;28;19910;-63
2021/06/10 03:52:12;;;;;;;;;;;;;;;;;;5113453;28;19953;-65
2021/06/10 03:54:38;;;;;;;;;;;;;;;;;;5113420;28;19915;-64
2021/06/10 03:57:04;;;;;;;;;;;;;;;;;;5113286;28;19915;-65
2021/06/10 03:59:30;;;;;;;;;;;;;;;;;;5110308;28;19946;-66
2021/06/10 04:01:56;;;;;;;;;;;;;;;;;;5113251;28;19911;-65
2021/06/10 04:04:24;;;;;;;;;;;;;;;;;;5113421;28;19910;-63
2021/06/10 04:06:50;;;;;;;;;;;;;;;;;;5112925;28;20372;-64
2021/06/10 04:09:16;;;;;;;;;;;;;;;;;;5112949;28;20427;-64
2021/06/10 04:11:42;;;;;;;;;;;;;;;;;;5094527;28;20018;-66
2021/06/10 04:14:08;;;;;;;;;;;;;;;;;;5112630;28;19907;-64
2021/06/10 04:16:34;;;;;;;;;;;;;;;;;;5112883;28;19907;-64
2021/06/10 04:18:59;;;;;;;;;;;;;;;;;;5113876;28;19899;-65
2021/06/10 04:21:25;;;;;;;;;;;;;;;;;;5113912;28;20404;-66
2021/06/10 04:23:51;;;;;;;;;;;;;;;;;;5113575;28;19921;-67
2021/06/10 04:26:17;;;;;;;;;;;;;;;;;;5114187;28;19927;-66
2021/06/10 04:28:46;;;;;;;;;;;;;;;;;;5114596;28;19899;-66
2021/06/10 04:31:12;;;;;;;;;;;;;;;;;;5114322;28;19922;-65
2021/06/10 04:33:38;;;;;;;;;;;;;;;;;;5114651;28;19899;-65
2021/06/10 04:36:04;;;;;;;;;;;;;;;;;;5114049;28;19950;-66
2021/06/10 04:38:30;;;;;;;;;;;;;;;;;;5113731;28;19934;-65
2021/06/10 04:40:56;;;;;;;;;;;;;;;;;;5114079;28;19904;-64
2021/06/10 04:43:22;;;;;;;;;;;;;;;;;;5114271;28;19907;-66
2021/06/10 04:45:48;;;;;;;;;;;;;;;;;;5114051;28;20324;-65
2021/06/10 04:48:14;;;;;;;;;;;;;;;;;;5114580;28;19907;-66
2021/06/10 04:50:40;;;;;;;;;;;;;;;;;;5114003;28;19899;-65
2021/06/10 04:53:07;;;;;;;;;;;;;;;;;;5114751;28;19925;-66
2021/06/10 04:55:33;;;;;;;;;;;;;;;;;;5114123;28;19915;-67
2021/06/10 04:57:59;;;;;;;;;;;;;;;;;;5113868;28;19900;-65
2021/06/10 05:00:25;;;;;;;;;;;;;;;;;;5114201;28;19964;-66
2021/06/10 05:02:51;;;;;;;;;;;;;;;;;;5115332;28;19910;-66
2021/06/10 05:05:17;;;;;;;;;;;;;;;;;;5117733;28;19997;-65
2021/06/10 05:07:43;;;;;;;;;;;;;;;;;;5117763;28;19990;-65
2021/06/10 05:10:09;;;;;;;;;;;;;;;;;;5117464;28;19946;-65
2021/06/10 05:12:36;;;;;;;;;;;;;;;;;;5117377;28;19899;-66
2021/06/10 05:15:02;;;;;;;;;;;;;;;;;;5117853;28;19976;-65
2021/06/10 05:17:28;;;;;;;;;;;;;;;;;;5099342;28;20328;-67
2021/06/10 05:19:54;;;;;;;;;;;;;;;;;;5116957;28;19904;-66
2021/06/10 05:22:20;;;;;;;;;;;;;;;;;;5118052;28;19906;-66
2021/06/10 05:24:46;;;;;;;;;;;;;;;;;;5117438;28;19903;-66
2021/06/10 05:27:12;;;;;;;;;;;;;;;;;;5117270;28;20383;-66
2021/06/10 05:29:38;;;;;;;;;;;;;;;;;;5117048;28;19923;-69
2021/06/10 05:32:04;;;;;;;;;;;;;;;;;;5117327;28;19903;-69
2021/06/10 05:34:30;;;;;;;;;;;;;;;;;;5117162;28;19949;-69
2021/06/10 05:36:56;;;;;;;;;;;;;;;;;;5117211;28;19906;-69
2021/06/10 05:39:22;;;;;;;;;;;;;;;;;;5117462;28;19900;-69
2021/06/10 05:41:48;;;;;;;;;;;;;;;;;;5116866;28;20293;-70
2021/06/10 05:44:14;;;;;;;;;;;;;;;;;;5098708;28;19899;-66
2021/06/10 05:46:40;;;;;;;;;;;;;;;;;;5116729;28;19899;-66
2021/06/10 05:49:06;;;;;;;;;;;;;;;;;;5117262;28;19939;-71
2021/06/10 05:51:32;;;;;;;;;;;;;;;;;;5098664;28;19900;-68
2021/06/10 05:53:58;;;;;;;;;;;;;;;;;;5116271;28;19899;-69
2021/06/10 05:56:24;;;;;;;;;;;;;;;;;;5116832;28;19950;-68
2021/06/10 05:58:50;;;;;;;;;;;;;;;;;;5116987;28;19900;-68
2021/06/10 06:01:16;;;;;;;;;;;;;;;;;;5097964;28;20375;-69
2021/06/10 06:03:42;;;;;;;;;;;;;;;;;;5098356;28;20247;-69
2021/06/10 06:06:08;;;;;;;;;;;;;;;;;;5098362;28;20225;-69
2021/06/10 06:08:34;;;;;;;;;;;;;;;;;;5098305;28;19900;-69
2021/06/10 06:11:00;;;;;;;;;;;;;;;;;;5098253;28;19900;-69
2021/06/10 06:16:18;;;;;;;;;;;;;;;;;;5099138;28;19908;-68
2021/06/10 06:18:44;;;;;;;;;;;;;;;;;;5116396;28;20256;-67
2021/06/10 06:21:10;;;;;;;;;;;;;;;;;;5116358;28;19899;-67
2021/06/10 06:23:36;;;;;;;;;;;;;;;;;;5115973;28;19972;-67
2021/06/10 06:26:02;;;;;;;;;;;;;;;;;;5097937;28;19900;-69
2021/06/10 06:28:28;;;;;;;;;;;;;;;;;;5116197;28;19960;-68
2021/06/10 06:30:54;;;;;;;;;;;;;;;;;;5115537;28;20352;-69
2021/06/10 06:33:20;;;;;;;;;;;;;;;;;;5115869;28;19899;-68
2021/06/10 06:35:46;;;;;;;;;;;;;;;;;;5115668;28;19912;-68
2021/06/10 06:38:12;;;;;;;;;;;;;;;;;;5116007;28;19984;-68
2021/06/10 06:40:38;;;;;;;;;;;;;;;;;;5116287;28;19907;-68
2021/06/10 06:43:05;;;;;;;;;;;;;;;;;;5115317;28;20016;-69
2021/06/10 06:45:31;;;;;;;;;;;;;;;;;;5115857;28;19900;-69
2021/06/10 06:47:57;;;;;;;;;;;;;;;;;;5097523;28;19900;-68
2021/06/10 06:50:23;;;;;;;;;;;;;;;;;;5115494;28;19900;-69
2021/06/10 06:52:49;;;;;;;;;;;;;;;;;;5115947;28;20251;-69
2021/06/10 06:55:15;;;;;;;;;;;;;;;;;;5115337;28;19939;-68
2021/06/10 06:57:41;;;;;;;;;;;;;;;;;;5097129;28;19899;-68
2021/06/10 07:00:07;;;;;;;;;;;;;;;;;;5115555;28;20411;-68
2021/06/10 07:02:33;;;;;;;;;;;;;;;;;;5116100;28;20228;-68
2021/06/10 07:04:59;;;;;;;;;;;;;;;;;;5115541;28;19923;-68
2021/06/10 07:07:25;;;;;;;;;;;;;;;;;;5115131;28;19931;-68
2021/06/10 07:09:51;;;;;;;;;;;;;;;;;;5115244;28;19979;-68
2021/06/10 07:12:17;;;;;;;;;;;;;;;;;;5115064;28;19911;-68
2021/06/10 07:14:43;;;;;;;;;;;;;;;;;;5115384;28;19930;-69
2021/06/10 07:17:10;;;;;;;;;;;;;;;;;;5097609;28;20359;-69
2021/06/10 07:19:36;;;;;;;;;;;;;;;;;;5114923;28;20367;-69
2021/06/10 07:22:02;;;;;;;;;;;;;;;;;;5115180;28;19900;-68
2021/06/10 07:24:28;;;;;;;;;;;;;;;;;;5114835;28;19900;-67
2021/06/10 07:26:54;;;;;;;;;;;;;;;;;;5114130;28;19907;-68
2021/06/10 07:29:20;;;;;;;;;;;;;;;;;;5114785;28;19900;-71
2021/06/10 07:31:46;;;;;;;;;;;;;;;;;;5097192;28;20374;-70
2021/06/10 07:34:12;;;;;;;;;;;;;;;;;;5096339;28;19904;-69
2021/06/10 07:36:38;;;;;;;;;;;;;;;;;;5114573;28;20010;-70
2021/06/10 07:39:04;;;;;;;;;;;;;;;;;;5115259;28;20290;-68
2021/06/10 07:41:31;;;;;;;;;;;;;;;;;;5114897;28;19900;-69
2021/06/10 07:43:57;;;;;;;;;;;;;;;;;;5114321;28;20255;-69
2021/06/10 07:46:23;;;;;;;;;;;;;;;;;;5114966;28;19900;-69
2021/06/10 07:48:49;;;;;;;;;;;;;;;;;;5114754;28;20336;-69
2021/06/10 07:51:14;;;;;;;;;;;;;;;;;;5114486;28;20247;-69
2021/06/10 07:53:41;;;;;;;;;;;;;;;;;;5115367;28;19903;-69
2021/06/10 07:56:07;;;;;;;;;;;;;;;;;;5114655;28;19911;-68
2021/06/10 07:58:33;;;;;;;;;;;;;;;;;;5114132;28;19906;-69
2021/06/10 08:00:59;;;;;;;;;;;;;;;;;;5114388;28;19941;-69
2021/06/10 08:03:25;;;;;;;;;;;;;;;;;;5114010;28;19900;-69
2021/06/10 08:05:52;;;;;;;;;;;;;;;;;;5114717;28;20012;-69
2021/06/10 08:08:18;;;;;;;;;;;;;;;;;;5114943;28;19998;-69
2021/06/10 08:10:45;;;;;;;;;;;;;;;;;;5114018;28;20304;-69
2021/06/10 08:13:11;;;;;;;;;;;;;;;;;;5114598;28;20002;-68
2021/06/10 08:15:37;;;;;;;;;;;;;;;;;;5114199;28;20025;-68
2021/06/10 08:18:03;;;;;;;;;;;;;;;;;;5114003;28;20380;-69
2021/06/10 08:20:30;;;;;;;;;;;;;;;;;;5114503;28;19923;-68
2021/06/10 08:22:59;;;;;;;;;;;;;;;;;;5114477;28;20324;-68
2021/06/10 08:25:26;;;;;;;;;;;;;;;;;;5114162;28;19899;-69
2021/06/10 08:27:52;;;;;;;;;;;;;;;;;;5114945;28;19899;-68
2021/06/10 08:30:18;;;;;;;;;;;;;;;;;;5114137;28;20262;-68
2021/06/10 08:32:44;;;;;;;;;;;;;;;;;;5114091;28;19899;-69
2021/06/10 08:35:10;;;;;;;;;;;;;;;;;;5096112;28;19908;-69
2021/06/10 08:37:36;;;;;;;;;;;;;;;;;;5097731;28;20336;-68
2021/06/10 08:40:03;;;;;;;;;;;;;;;;;;5117745;28;19921;-69
2021/06/10 08:42:30;;;;;;;;;;;;;;;;;;5118280;28;19904;-68
2021/06/10 08:44:56;;;;;;;;;;;;;;;;;;5118144;28;20384;-68
2021/06/10 08:47:23;;;;;;;;;;;;;;;;;;5099602;28;19904;-69
2021/06/10 08:49:49;;;;;;;;;;;;;;;;;;5118173;28;19899;-69
2021/06/10 08:52:14;;;;;;;;;;;;;;;;;;5118014;28;19900;-69
2021/06/10 08:54:40;;;;;;;;;;;;;;;;;;5118286;28;19908;-69
2021/06/10 08:57:06;;;;;;;;;;;;;;;;;;5118265;28;19903;-69
2021/06/10 08:59:32;;;;;;;;;;;;;;;;;;5117200;28;19952;-69
2021/06/10 09:01:58;;;;;;;;;;;;;;;;;;5118523;28;20342;-68
2021/06/10 09:04:24;;;;;;;;;;;;;;;;;;5117543;28;20251;-68
2021/06/10 09:06:50;;;;;;;;;;;;;;;;;;5099222;28;19972;-68
2021/06/10 09:09:16;;;;;;;;;;;;;;;;;;5117749;28;19903;-69
2021/06/10 09:11:42;;;;;;;;;;;;;;;;;;5117461;28;19954;-68
2021/06/10 09:14:08;;;;;;;;;;;;;;;;;;5117045;28;19904;-69
2021/06/10 09:16:34;;;;;;;;;;;;;;;;;;5117512;28;19958;-67
2021/06/10 09:19:05;;;;;;;;;;;;;;;;;;5117577;28;20345;-68
2021/06/10 09:21:31;;;;;;;;;;;;;;;;;;5117242;28;19903;-69
2021/06/10 09:23:57;;;;;;;;;;;;;;;;;;5117163;28;19952;-68
2021/06/10 09:26:23;;;;;;;;;;;;;;;;;;5117176;28;19899;-69
2021/06/10 09:28:53;;;;;;;;;;;;;;;;;;5117303;28;20405;-69
2021/06/10 09:31:18;;;;;;;;;;;;;;;;;;5117609;28;20227;-68
2021/06/10 09:33:44;;;;;;;;;;;;;;;;;;5117382;28;19903;-67
2021/06/10 09:36:10;;;;;;;;;;;;;;;;;;5116877;28;20351;-68
2021/06/10 09:38:36;;;;;;;;;;;;;;;;;;5116894;28;19904;-69
2021/06/10 09:41:02;;;;;;;;;;;;;;;;;;5117174;28;19899;-67
2021/06/10 09:43:28;;;;;;;;;;;;;;;;;;5116550;28;20282;-69
2021/06/10 09:45:54;;;;;;;;;;;;;;;;;;5116723;28;19952;-68
2021/06/10 09:48:24;;;;;;;;;;;;;;;;;;5116165;28;19899;-70
2021/06/10 09:50:53;;;;;;;;;;;;;;;;;;5117201;28;19945;-68
2021/06/10 09:53:20;;;;;;;;;;;;;;;;;;5116909;28;19899;-70
2021/06/10 09:55:46;;;;;;;;;;;;;;;;;;5098194;28;20349;-71
2021/06/10 09:58:12;;;;;;;;;;;;;;;;;;5116497;28;19899;-68
2021/06/10 10:00:38;;;;;;;;;;;;;;;;;;5094871;28;20006;-67
2021/06/10 10:03:04;;;;;;;;;;;;;;;;;;5095938;28;19991;-68
2021/06/10 10:05:30;;;;;;;;;;;;;;;;;;5096272;28;19904;-68
2021/06/10 10:07:56;;;;;;;;;;;;;;;;;;5096487;28;19903;-69
2021/06/10 10:10:23;;;;;;;;;;;;;;;;;;5095878;28;19900;-72
2021/06/10 10:12:52;;;;;;;;;;;;;;;;;;5096094;28;19903;-67
2021/06/10 10:15:18;;;;;;;;;;;;;;;;;;5094398;28;19908;-70
2021/06/10 10:17:44;;;;;;;;;;;;;;;;;;5083987;28;19949;-70
2021/06/10 10:20:12;;;;;;;;;;;;;;;;;;5085090;28;19908;-68
2021/06/10 10:22:38;;;;;;;;;;;;;;;;;;5083390;28;19901;-68
2021/06/10 10:25:04;;;;;;;;;;;;;;;;;;5085547;28;20298;-70
2021/06/10 10:27:30;;;;;;;;;;;;;;;;;;5084996;28;19994;-70
2021/06/10 10:29:56;;;;;;;;;;;;;;;;;;5084838;28;20420;-69
2021/06/10 10:32:22;;;;;;;;;;;;;;;;;;5082818;28;19901;-69
2021/06/10 10:34:48;;;;;;;;;;;;;;;;;;5084807;28;20229;-70
2021/06/10 10:37:13;;;;;;;;;;;;;;;;;;5084416;28;19907;-69
2021/06/10 10:39:41;;;;;;;;;;;;;;;;;;5083110;28;20454;-71
2021/06/10 10:42:07;;;;;;;;;;;;;;;;;;5083584;28;19927;-69
2021/06/10 10:44:34;;;;;;;;;;;;;;;;;;5080169;28;20352;-69
2021/06/10 10:47:03;;;;;;;;;;;;;;;;;;5074087;28;20272;-71
2021/06/10 10:49:29;;;;;;;;;;;;;;;;;;5074908;28;19900;-67
2021/06/10 10:51:55;;;;;;;;;;;;;;;;;;5073551;28;19983;-68
2021/06/10 10:54:21;;;;;;;;;;;;;;;;;;5073775;28;19995;-68
2021/06/10 10:56:47;;;;;;;;;;;;;;;;;;5074966;28;19961;-67
2021/06/10 10:59:13;;;;;;;;;;;;;;;;;;5074398;28;19900;-68
2021/06/10 11:01:39;;;;;;;;;;;;;;;;;;5113072;28;19933;-69
2021/06/10 11:04:05;;;;;;;;;;;;;;;;;;5097269;28;20407;-71
2021/06/10 11:06:31;;;;;;;;;;;;;;;;;;5096946;28;19906;-70
2021/06/10 11:08:58;;;;;;;;;;;;;;;;;;5115215;28;20352;-72
2021/06/10 11:11:24;;;;;;;;;;;;;;;;;;5115410;28;19900;-70
2021/06/10 11:13:50;;;;;;;;;;;;;;;;;;5115182;28;19899;-69
2021/06/10 11:16:16;;;;;;;;;;;;;;;;;;5115288;28;19968;-68
2021/06/10 11:18:42;;;;;;;;;;;;;;;;;;5115241;28;19899;-67
2021/06/10 11:21:08;;;;;;;;;;;;;;;;;;5114960;28;19900;-69
2021/06/10 11:23:34;;;;;;;;;;;;;;;;;;5115717;28;20213;-68
2021/06/10 11:26:02;;;;;;;;;;;;;;;;;;5115174;28;19900;-69
2021/06/10 11:28:29;;;;;;;;;;;;;;;;;;5096574;28;19907;-68
2021/06/10 11:30:56;;;;;;;;;;;;;;;;;;5115104;28;20399;-68
2021/06/10 11:33:22;;;;;;;;;;;;;;;;;;5114995;28;19900;-69
2021/06/10 11:35:48;;;;;;;;;;;;;;;;;;5114944;28;20010;-69
2021/06/10 11:38:14;;;;;;;;;;;;;;;;;;5115546;28;20326;-68
2021/06/10 11:40:40;;;;;;;;;;;;;;;;;;5114402;28;20364;-69
2021/06/10 11:43:06;;;;;;;;;;;;;;;;;;5115170;28;19907;-70
2021/06/10 11:45:32;;;;;;;;;;;;;;;;;;5114868;28;20348;-68
2021/06/10 11:47:58;;;;;;;;;;;;;;;;;;5096226;28;19899;-70
2021/06/10 11:50:24;;;;;;;;;;;;;;;;;;5096566;28;19900;-69
2021/06/10 11:52:50;;;;;;;;;;;;;;;;;;5114778;28;19900;-67
2021/06/10 11:55:16;;;;;;;;;;;;;;;;;;5114547;28;19918;-68
2021/06/10 11:57:42;;;;;;;;;;;;;;;;;;5096453;28;19899;-69
2021/06/10 12:00:08;;;;;;;;;;;;;;;;;;5114673;28;19964;-69
2021/06/10 12:02:35;;;;;;;;;;;;;;;;;;5114428;28;20328;-69
2021/06/10 12:05:01;;;;;;;;;;;;;;;;;;5114348;28;19992;-68
2021/06/10 12:07:27;;;;;;;;;;;;;;;;;;5114621;28;19998;-69
2021/06/10 12:09:53;;;;;;;;;;;;;;;;;;5114693;28;19900;-71
2021/06/10 12:12:19;;;;;;;;;;;;;;;;;;5096659;28;19899;-71
2021/06/10 12:14:45;;;;;;;;;;;;;;;;;;5118476;28;19938;-71
2021/06/10 12:17:12;;;;;;;;;;;;;;;;;;5118225;28;19900;-69
2021/06/10 12:19:38;;;;;;;;;;;;;;;;;;5118845;28;19952;-73
2021/06/10 12:22:04;;;;;;;;;;;;;;;;;;5118700;28;19904;-73
2021/06/10 12:24:30;;;;;;;;;;;;;;;;;;5118342;28;19906;-71
2021/06/10 12:26:55;;;;;;;;;;;;;;;;;;5118634;28;19900;-70
2021/06/10 12:29:21;;;;;;;;;;;;;;;;;;5117801;28;19956;-70
2021/06/10 12:31:47;;;;;;;;;;;;;;;;;;5118495;28;19907;-70
2021/06/10 12:34:13;;;;;;;;;;;;;;;;;;5118686;28;20340;-68
2021/06/10 12:36:39;;;;;;;;;;;;;;;;;;5117801;28;20380;-68
2021/06/10 12:39:05;;;;;;;;;;;;;;;;;;5118349;28;19899;-67
2021/06/10 12:41:32;;;;;;;;;;;;;;;;;;5118333;28;19922;-69
2021/06/10 12:43:57;;;;;;;;;;;;;;;;;;5118315;28;19900;-68
2021/06/10 12:46:23;;;;;;;;;;;;;;;;;;5118275;28;19907;-69
2021/06/10 12:48:49;;;;;;;;;;;;;;;;;;5118254;28;19906;-69
2021/06/10 12:51:15;;;;;;;;;;;;;;;;;;5117660;28;19900;-68
2021/06/10 12:53:41;;;;;;;;;;;;;;;;;;5118674;28;19900;-68
2021/06/10 12:56:07;;;;;;;;;;;;;;;;;;5117707;28;19960;-69
2021/06/10 12:58:33;;;;;;;;;;;;;;;;;;5117737;28;19982;-69
2021/06/10 13:00:59;;;;;;;;;;;;;;;;;;5118009;28;19912;-68
2021/06/10 13:03:25;;;;;;;;;;;;;;;;;;5118276;28;19944;-69
2021/06/10 13:05:51;;;;;;;;;;;;;;;;;;5117430;28;20284;-69
2021/06/10 13:08:17;;;;;;;;;;;;;;;;;;5099563;28;20328;-69
2021/06/10 13:10:43;;;;;;;;;;;;;;;;;;5117802;28;19960;-69
2021/06/10 13:13:09;;;;;;;;;;;;;;;;;;5099139;28;19906;-70
2021/06/10 13:15:35;;;;;;;;;;;;;;;;;;5117602;28;19908;-70
2021/06/10 13:18:02;;;;;;;;;;;;;;;;;;5117625;28;19951;-69
2021/06/10 13:20:28;;;;;;;;;;;;;;;;;;5117300;28;19899;-67
2021/06/10 13:22:54;;;;;;;;;;;;;;;;;;5117270;28;19899;-70
2021/06/10 13:25:20;;;;;;;;;;;;;;;;;;5116529;28;19899;-69
2021/06/10 13:27:47;;;;;;;;;;;;;;;;;;5117555;28;19945;-68
2021/06/10 13:30:13;;;;;;;;;;;;;;;;;;5117382;28;19954;-68
2021/06/10 13:32:39;;;;;;;;;;;;;;;;;;5117049;28;19899;-69
2021/06/10 13:37:31;;;;;;;;;;;;;;;;;;5117260;28;19906;-71
2021/06/10 13:39:57;;;;;;;;;;;;;;;;;;5116985;28;19903;-69
2021/06/10 13:42:22;;;;;;;;;;;;;;;;;;5117499;28;19906;-69
2021/06/10 13:44:48;;;;;;;;;;;;;;;;;;5098811;28;19899;-69
2021/06/10 13:47:15;;;;;;;;;;;;;;;;;;5098503;28;19906;-70
2021/06/10 13:49:41;;;;;;;;;;;;;;;;;;5117053;28;19900;-68
2021/06/10 13:52:07;;;;;;;;;;;;;;;;;;5117264;28;19900;-69
2021/06/10 13:54:33;;;;;;;;;;;;;;;;;;5116582;28;19960;-69
2021/06/10 13:56:59;;;;;;;;;;;;;;;;;;5116863;28;19899;-70
2021/06/10 13:59:25;;;;;;;;;;;;;;;;;;5116676;28;19904;-70
2021/06/10 14:01:51;;;;;;;;;;;;;;;;;;5098347;28;19935;-70
2021/06/10 14:04:17;;;;;;;;;;;;;;;;;;5116510;28;20267;-69
2021/06/10 14:06:43;;;;;;;;;;;;;;;;;;5116715;28;19947;-69
2021/06/10 14:09:09;;;;;;;;;;;;;;;;;;5116130;28;19993;-68
2021/06/10 14:11:35;;;;;;;;;;;;;;;;;;5116573;28;19900;-70
2021/06/10 14:14:01;;;;;;;;;;;;;;;;;;5116649;28;19906;-70
2021/06/10 14:16:27;;;;;;;;;;;;;;;;;;5116166;28;19960;-69
2021/06/10 14:18:53;;;;;;;;;;;;;;;;;;5116718;28;20001;-69
2021/06/10 14:21:22;;;;;;;;;;;;;;;;;;5097768;28;19988;-69
2021/06/10 14:23:49;;;;;;;;;;;;;;;;;;5098332;28;19899;-70
2021/06/10 14:26:15;;;;;;;;;;;;;;;;;;5116322;28;19900;-70
2021/06/10 14:28:41;;;;;;;;;;;;;;;;;;5115707;28;19906;-69
2021/06/10 14:33:57;;;;;;;;;;;;;;;;;;5096100;28;19903;-69
2021/06/10 14:36:23;;;;;;;;;;;;;;;;;;5114618;28;19907;-70
2021/06/10 14:38:48;;;;;;;;;;;;;;;;;;5116305;28;19899;-69
2021/06/10 14:41:14;;;;;;;;;;;;;;;;;;5098046;28;19990;-70
2021/06/10 14:43:40;;;;;;;;;;;;;;;;;;5115672;28;19907;-69
2021/06/10 14:46:06;;;;;;;;;;;;;;;;;;5116209;28;20436;-68
2021/06/10 14:48:32;;;;;;;;;;;;;;;;;;5115576;28;20262;-68
2021/06/10 14:50:58;;;;;;;;;;;;;;;;;;5115250;28;19922;-70
2021/06/10 14:53:24;;;;;;;;;;;;;;;;;;5116066;28;19906;-68
2021/06/10 14:55:50;;;;;;;;;;;;;;;;;;5098136;28;19907;-67
2021/06/10 14:58:16;;;;;;;;;;;;;;;;;;5115390;28;19979;-69
2021/06/10 15:00:42;;;;;;;;;;;;;;;;;;5097158;28;20348;-70
2021/06/10 15:03:08;;;;;;;;;;;;;;;;;;5115383;28;19908;-70
2021/06/10 15:05:34;;;;;;;;;;;;;;;;;;5115191;28;19899;-69
2021/06/10 15:08:00;;;;;;;;;;;;;;;;;;5115493;28;19906;-69
2021/06/10 15:10:26;;;;;;;;;;;;;;;;;;5097333;28;19904;-69
2021/06/10 15:12:52;;;;;;;;;;;;;;;;;;5115396;28;19904;-69
2021/06/10 15:15:20;;;;;;;;;;;;;;;;;;5115157;28;20372;-69
2021/06/10 15:17:46;;;;;;;;;;;;;;;;;;5114861;28;20010;-70
2021/06/10 15:20:12;;;;;;;;;;;;;;;;;;5114569;28;20352;-69
2021/06/10 15:22:38;;;;;;;;;;;;;;;;;;5114519;28;20268;-69
2021/06/10 15:25:04;;;;;;;;;;;;;;;;;;5112991;28;19900;-69
2021/06/10 15:27:30;;;;;;;;;;;;;;;;;;5114034;28;19907;-71
2021/06/10 15:29:56;;;;;;;;;;;;;;;;;;5114788;28;19900;-69
2021/06/10 15:32:22;;;;;;;;;;;;;;;;;;5096509;28;19899;-68
2021/06/10 15:34:48;;;;;;;;;;;;;;;;;;5114617;28;19899;-70
2021/06/10 15:37:15;;;;;;;;;;;;;;;;;;5115605;28;19906;-68
2021/06/10 15:39:41;;;;;;;;;;;;;;;;;;5114398;28;19900;-71
2021/06/10 15:42:07;;;;;;;;;;;;;;;;;;5114700;28;19907;-71
2021/06/10 15:44:33;;;;;;;;;;;;;;;;;;5114623;28;19942;-68
2021/06/10 15:46:59;;;;;;;;;;;;;;;;;;5114118;28;20425;-72
2021/06/10 15:49:25;;;;;;;;;;;;;;;;;;5094397;28;19912;-69
2021/06/10 15:51:51;;;;;;;;;;;;;;;;;;5112349;28;20292;-68
2021/06/10 15:54:17;;;;;;;;;;;;;;;;;;5113486;28;19904;-70
2021/06/10 15:56:44;;;;;;;;;;;;;;;;;;5113393;28;19951;-69
2021/06/10 15:59:10;;;;;;;;;;;;;;;;;;5112514;28;19990;-69
2021/06/10 16:01:36;;;;;;;;;;;;;;;;;;5113568;28;20423;-70
2021/06/10 16:04:02;;;;;;;;;;;;;;;;;;5113754;28;20252;-70
2021/06/10 16:06:28;;;;;;;;;;;;;;;;;;5112629;28;19903;-69
2021/06/10 16:08:54;;;;;;;;;;;;;;;;;;5113786;28;19899;-70
2021/06/10 16:11:20;;;;;;;;;;;;;;;;;;5095634;28;19944;-70
2021/06/10 16:13:46;;;;;;;;;;;;;;;;;;5112799;28;19952;-72
2021/06/10 16:16:12;;;;;;;;;;;;;;;;;;5114005;28;19908;-72
2021/06/10 16:18:38;;;;;;;;;;;;;;;;;;5095686;28;19906;-70
2021/06/10 16:21:04;;;;;;;;;;;;;;;;;;5112573;28;19906;-70
2021/06/10 16:23:30;;;;;;;;;;;;;;;;;;5113688;28;19953;-71
2021/06/10 16:25:56;;;;;;;;;;;;;;;;;;5113312;28;20394;-72
2021/06/10 16:28:22;;;;;;;;;;;;;;;;;;5094536;28;19990;-70
2021/06/10 16:30:48;;;;;;;;;;;;;;;;;;5113625;28;19990;-70
2021/06/10 16:33:13;;;;;;;;;;;;;;;;;;5113545;28;19900;-71
2021/06/10 16:35:40;;;;;;;;;;;;;;;;;;5112722;28;20321;-69
2021/06/10 16:38:06;;;;;;;;;;;;;;;;;;5113794;28;19907;-72
2021/06/10 16:40:32;;;;;;;;;;;;;;;;;;5094991;28;19899;-71
2021/06/10 16:42:58;;;;;;;;;;;;;;;;;;5112520;28;19994;-70
2021/06/10 16:45:24;;;;;;;;;;;;;;;;;;5095396;28;19959;-69